Genesee Depot, Wisconsin
Current Conditions -  °F | °C
As of 5:45 AM on Thursday 23 Oct 2014 (Local Time) from KUES Reporting Station
Haze Haze  
Wind Chill: 32°   Ceiling: Unl
Heat Index: 36°   Visibility: 5mi
Dew Point: 34°   Wind: 5mph
Humidity: 93%   Direction: 150°SSE
Pressure: 30.21"   Gusts: NA
Location:  42.97°N, 88.37°W
Report Text: KUES 231045Z 15004KT 5SM BR SKC 02/01 A3021
Loading
Personal Weather Stations






























Interactive Weather Map
Tropical Storm Tracking
New forecast layout! Learn more

10-Day Weather Forecast

Advertisements
Track Severe Weather on mobile